Time;durP1;ratioP1;P1;durP2;ratioP2;P2;SDS_P1;SDS_P2;PMS_P1;PMS_P2;Temp;Humidity;BMP_temperature;BMP_pressure;BME280_temperature;BME280_humidity;BME280_pressure;Samples;Min_cycle;Max_cycle;Signal;HPM_P1;HPM_P2
2021/07/15 00:00:16;;;;;;;;;;;;;;;;;;;;;
2021/07/15 00:03:12;;;;;;;;;9.25;9.00;;;;;20.28;63.13;101341.03;4923633;28;72100;-74
2021/07/15 00:06:10;;;;;;;;;;;;;;;;;;;;;
2021/07/15 00:08:39;;;;;;;;;8.50;8.50;;;;;20.14;63.24;101325.66;4913717;28;71697;-74
2021/07/15 00:12:06;;;;;;;;;;;;;;;;;;;;;
2021/07/15 00:17:38;;;;;;;;;6.50;6.50;;;;;19.84;63.31;101285.13;4907865;28;45460;-74
2021/07/15 00:20:45;;;;;;;;;10.25;10.25;;;;;19.78;63.48;101264.72;4924062;28;45527;-74
2021/07/15 00:23:46;;;;;;;;;;;;;;;;;;;;;
2021/07/15 00:26:42;;;;;;;;;8.50;8.50;;;;;19.91;63.40;101300.91;4912066;28;74006;-74
2021/07/15 00:30:23;;;;;;;;;;;;;;;;;;;;;
2021/07/15 00:33:31;;;;;;;;;10.25;9.00;;;;;19.68;63.53;101272.50;4916916;28;45314;-74
2021/07/15 00:35:58;;;;;;;;;12.25;10.25;;;;;20.13;63.32;101359.13;4920552;28;46901;-73
2021/07/15 00:38:38;;;;;;;;;12.50;12.50;;;;;19.67;63.45;101276.16;4910628;28;45783;-74
2021/07/15 00:41:33;;;;;;;;;;;;;;;;;;;;;
2021/07/15 00:44:25;;;;;;;;;10.75;10.25;;;;;19.73;63.37;101299.28;4923284;28;72876;-73
2021/07/15 00:47:22;;;;;;;;;13.50;11.00;;;;;20.04;63.84;101355.19;4923130;28;45416;-74
2021/07/15 00:49:50;;;;;;;;;14.00;12.25;;;;;19.85;63.45;101325.66;4903127;29;45914;-73
2021/07/15 00:53:07;;;;;;;;;10.50;10.00;;;;;20.12;63.66;101373.69;4898580;28;45428;-74
2021/07/15 00:55:51;;;;;;;;;13.50;11.00;;;;;19.93;63.18;101353.16;4894999;28;45489;-74
2021/07/15 00:58:22;;;;;;;;;13.00;13.00;;;;;19.91;63.92;101340.66;4905818;28;48731;-74
2021/07/15 01:01:09;;;;;;;;;11.50;11.50;;;;;19.90;63.78;101342.50;4906485;28;45233;-74
2021/07/15 01:03:57;;;;;;;;;12.25;10.25;;;;;20.03;63.54;101360.69;4923619;28;45199;-74
2021/07/15 01:06:35;;;;;;;;;10.75;10.00;;;;;19.51;63.79;101275.38;4919278;28;45494;-74
2021/07/15 01:09:18;;;;;;;;;15.00;12.00;;;;;19.54;63.77;101286.03;4906614;28;47001;-74
2021/07/15 01:12:34;;;;;;;;;10.75;10.75;;;;;19.99;63.92;101357.31;4923828;28;45436;-74
2021/07/15 01:15:40;;;;;;;;;;;;;;;;;;;;;
2021/07/15 01:18:37;;;;;;;;;12.25;12.25;;;;;19.90;63.94;101352.47;4910169;28;72864;-74
2021/07/15 01:21:27;;;;;;;;;10.75;10.75;;;;;19.91;64.09;101352.38;4916290;28;46634;-73
2021/07/15 01:24:34;;;;;;;;;13.50;12.00;;;;;19.84;63.62;101337.44;4916649;28;45410;-73
2021/07/15 01:27:17;;;;;;;;;10.00;9.75;;;;;19.93;64.12;101352.25;4923665;28;45420;-74
2021/07/15 01:30:12;;;;;;;;;13.00;12.25;;;;;20.04;64.09;101365.16;4923581;28;45443;-74
2021/07/15 01:33:16;;;;;;;;;;;;;;;;;;;;;
2021/07/15 01:36:24;;;;;;;;;11.00;9.50;;;;;19.60;63.62;101312.72;4919970;28;72541;-74
2021/07/15 01:39:06;;;;;;;;;11.50;11.50;;;;;19.68;64.33;101323.97;4920402;28;45518;-74
2021/07/15 01:42:00;;;;;;;;;13.00;11.25;;;;;19.56;63.90;101300.31;4905971;28;45425;-74
2021/07/15 01:44:34;;;;;;;;;15.75;14.75;;;;;19.96;64.27;101373.75;4923477;28;45787;-74
2021/07/15 01:47:00;;;;;;;;;12.75;10.25;;;;;19.53;63.90;101285.16;4906167;28;45445;-74
2021/07/15 01:49:55;;;;;;;;;12.50;11.25;;;;;19.63;64.28;101310.69;4918736;28;45490;-74
2021/07/15 01:52:32;;;;;;;;;11.25;11.25;;;;;19.94;63.81;101356.72;4891803;28;46301;-74
2021/07/15 01:55:13;;;;;;;;;;;;;;;;;;;;;
2021/07/15 01:57:45;;;;;;;;;8.25;7.75;;;;;19.50;64.17;101298.88;4912031;28;72055;-74
2021/07/15 02:00:29;;;;;;;;;8.50;8.50;;;;;19.48;64.50;101292.69;4923119;28;45167;-74
2021/07/15 02:03:05;;;;;;;;;8.75;8.75;;;;;19.46;64.31;101282.91;4920708;28;45574;-74
2021/07/15 02:06:00;;;;;;;;;12.50;11.25;;;;;19.53;64.01;101306.81;4905871;28;47090;-74
2021/07/15 02:09:06;;;;;;;;;;;;;;;;;;;;;
2021/07/15 02:11:33;;;;;;;;;13.25;10.75;;;;;19.54;64.55;101296.84;4921474;28;69634;-74
2021/07/15 02:14:34;;;;;;;;;14.50;13.75;;;;;19.87;64.14;101352.66;4921603;28;45510;-74
2021/07/15 02:17:08;;;;;;;;;16.50;15.25;;;;;19.66;64.61;101331.28;4899751;28;47414;-74
2021/07/15 02:19:46;;;;;;;;;24.75;22.50;;;;;19.66;64.49;101334.00;4905097;28;45884;-74
2021/07/15 02:22:30;;;;;;;;;19.25;18.25;;;;;19.72;64.51;101344.47;4905401;28;45351;-74
2021/07/15 02:25:07;;;;;;;;;22.00;20.50;;;;;19.68;64.47;101331.19;4922833;28;45336;-74
2021/07/15 02:27:42;;;;;;;;;22.25;18.50;;;;;19.44;64.91;101293.81;4902228;29;48320;-74
2021/07/15 02:30:39;;;;;;;;;16.25;15.75;;;;;19.62;64.49;101329.75;4899265;28;45591;-74
2021/07/15 02:33:22;;;;;;;;;21.50;19.50;;;;;19.63;64.54;101328.78;4911599;28;45217;-74
2021/07/15 02:36:01;;;;;;;;;17.75;16.50;;;;;19.76;64.76;101364.13;4921213;28;45372;-74
2021/07/15 02:38:34;;;;;;;;;13.25;12.00;;;;;19.49;65.08;101316.06;4909167;28;46885;-74
2021/07/15 02:41:26;;;;;;;;;15.00;15.00;;;;;19.28;64.83;101274.06;4905336;28;45452;-74
2021/07/15 02:44:01;;;;;;;;;15.00;14.50;;;;;19.68;65.15;101342.03;4922124;28;45276;-74
2021/07/15 02:46:47;;;;;;;;;14.50;12.75;;;;;19.23;64.79;101269.81;4922493;28;45446;-74
2021/07/15 02:49:42;;;;;;;;;15.25;13.25;;;;;19.30;65.21;101278.44;4922325;28;46353;-74
2021/07/15 02:52:26;;;;;;;;;15.50;14.00;;;;;19.54;65.14;101326.63;4915428;28;45283;-74
2021/07/15 02:55:02;;;;;;;;;14.75;12.75;;;;;19.63;65.22;101339.63;4901087;28;45513;-74
2021/07/15 02:57:49;;;;;;;;;14.00;13.50;;;;;19.16;65.18;101268.44;4905101;28;45422;-74
2021/07/15 03:00:39;;;;;;;;;;;;;;;;;;;;;
2021/07/15 03:03:41;;;;;;;;;11.25;11.25;;;;;19.18;65.16;101269.22;4920721;28;72122;-74
2021/07/15 03:06:19;;;;;;;;;13.00;12.75;;;;;19.53;65.22;101317.66;4910721;28;45534;-74
2021/07/15 03:09:47;;;;;;;;;15.25;13.75;;;;;19.62;65.35;101330.59;4905022;28;45522;-74
2021/07/15 03:12:34;;;;;;;;;;;;;;;;;;;;;
2021/07/15 03:15:20;;;;;;;;;17.75;13.00;;;;;19.39;65.93;101291.38;4910622;28;73053;-74
2021/07/15 03:17:53;;;;;;;;;14.00;12.75;;;;;19.64;65.67;101330.53;4921878;28;45479;-74
2021/07/15 03:20:49;;;;;;;;;;;;;;;;;;;;;
2021/07/15 03:23:38;;;;;;;;;13.75;13.75;;;;;19.38;65.23;101291.50;4911578;28;74103;-74
2021/07/15 03:26:24;;;;;;;;;14.00;13.50;;;;;19.66;65.50;101344.81;4917348;28;45551;-74
2021/07/15 03:29:19;;;;;;;;;15.00;14.50;;;;;19.21;65.40;101260.03;4922013;28;45295;-74
2021/07/15 03:31:53;;;;;;;;;11.00;11.00;;;;;19.58;65.28;101325.50;4904285;28;45550;-74
2021/07/15 03:34:42;;;;;;;;;;;;;;;;;;;;;
2021/07/15 03:37:18;;;;;;;;;;;;;;;;;;;;;
2021/07/15 03:40:30;;;;;;;;;14.50;13.25;;;;;19.67;65.15;101345.72;4920973;28;67442;-74
2021/07/15 03:43:15;;;;;;;;;13.00;11.50;;;;;19.16;65.50;101254.03;4909696;28;45367;-74
2021/07/15 03:45:53;;;;;;;;;;;;;;;;;;;;;
2021/07/15 03:48:43;;;;;;;;;12.75;12.75;;;;;19.39;65.58;101304.94;4920508;28;72889;-74
2021/07/15 03:54:46;;;;;;;;;15.00;12.00;;;;;19.38;65.86;101300.50;4914072;28;45670;-74
2021/07/15 03:57:48;;;;;;;;;15.00;12.00;;;;;19.56;65.37;101322.00;4904293;28;47152;-74
2021/07/15 04:00:41;;;;;;;;;12.75;12.00;;;;;19.17;65.67;101255.78;4904218;28;45336;-74
2021/07/15 04:03:23;;;;;;;;;17.50;16.00;;;;;19.45;65.41;101298.28;4921150;28;45379;-74
2021/07/15 04:06:10;;;;;;;;;;;;;;;;;;;;;
2021/07/15 04:11:50;;;;;;;;;13.25;12.50;;;;;19.66;65.47;101341.25;4905431;28;45232;-73
2021/07/15 04:14:40;;;;;;;;;14.00;13.25;;;;;19.46;65.67;101300.00;4903287;28;45614;-74
2021/07/15 04:17:16;;;;;;;;;15.75;15.75;;;;;19.18;65.81;101258.41;4904265;28;45198;-74
2021/07/15 04:20:11;;;;;;;;;12.75;12.75;;;;;19.32;65.52;101286.47;4900625;28;48373;-74
2021/07/15 04:22:54;;;;;;;;;;;;;;;;;;;;;
2021/07/15 04:25:47;;;;;;;;;;;;;;;;;;;;;
2021/07/15 04:28:34;;;;;;;;;;;;;;;;;;;;;
2021/07/15 04:31:58;;;;;;;;;13.00;12.25;;;;;19.68;65.72;101352.84;4910922;28;74466;-73
2021/07/15 04:34:34;;;;;;;;;13.00;12.25;;;;;19.31;65.93;101307.25;4906200;28;45371;-74
2021/07/15 04:37:19;;;;;;;;;;;;;;;;;;;;;
2021/07/15 04:40:23;;;;;;;;;;;;;;;;;;;;;
2021/07/15 04:43:45;;;;;;;;;;;;;;;;;;;;;
2021/07/15 04:46:20;;;;;;;;;13.50;13.25;;;;;19.29;65.65;101303.75;4879546;28;73031;-74
2021/07/15 04:48:52;;;;;;;;;15.00;10.75;;;;;19.13;65.71;101273.16;4923902;28;45344;-74
2021/07/15 04:51:40;;;;;;;;;14.25;13.25;;;;;19.50;66.10;101342.19;4906968;28;45368;-74
2021/07/15 04:57:28;;;;;;;;;;;;;;;;;;;;;
2021/07/15 05:00:29;;;;;;;;;12.25;12.25;;;;;19.38;66.14;101324.00;4923154;28;67240;-74
2021/07/15 05:06:33;;;;;;;;;13.75;13.75;;;;;19.20;65.80;101299.75;4904690;28;45571;-74
2021/07/15 05:09:13;;;;;;;;;;;;;;;;;;;;;
2021/07/15 05:11:50;;;;;;;;;15.75;14.75;;;;;19.18;65.80;101290.88;4922899;28;67967;-74
2021/07/15 05:14:37;;;;;;;;;;;;;;;;;;;;;
2021/07/15 05:17:38;;;;;;;;;10.25;10.25;;;;;19.40;65.93;101320.22;4922779;28;75277;-73
2021/07/15 05:23:20;;;;;;;;;14.75;11.25;;;;;19.18;65.66;101287.31;4899195;28;45915;-74
2021/07/15 05:26:02;;;;;;;;;;;;;;;;;;;;;
2021/07/15 05:28:48;;;;;;;;;;;;;;;;;;;;;
2021/07/15 05:31:26;;;;;;;;;9.75;9.75;;;;;19.16;65.42;101287.41;4922397;28;73440;-74
2021/07/15 05:34:57;;;;;;;;;10.00;10.00;;;;;19.20;65.54;101294.34;4922612;28;45336;-74
2021/07/15 05:38:04;;;;;;;;;;;;;;;;;;;;;
2021/07/15 05:41:06;;;;;;;;;12.00;12.00;;;;;19.28;65.09;101314.66;4918215;28;75368;-74
2021/07/15 05:43:55;;;;;;;;;11.25;11.25;;;;;19.16;65.20;101305.44;4919026;28;45696;-73
2021/07/15 05:46:20;;;;;;;;;12.50;11.75;;;;;19.58;65.18;101377.81;4922384;28;45373;-70
2021/07/15 05:48:45;;;;;;;;;10.00;10.00;;;;;19.43;65.39;101336.28;4922444;28;45430;-70
2021/07/15 05:51:11;;;;;;;;;13.75;13.50;;;;;19.50;64.85;101357.59;4921636;28;48060;-70
2021/07/15 05:53:36;;;;;;;;;11.00;10.25;;;;;19.46;65.22;101343.31;4906117;28;45542;-69
2021/07/15 05:56:01;;;;;;;;;11.75;11.50;;;;;19.59;65.55;101363.28;4922253;28;45345;-69
2021/07/15 05:58:27;;;;;;;;;12.25;12.00;;;;;19.71;65.20;101393.31;4921992;28;45475;-69
2021/07/15 06:00:52;;;;;;;;;14.00;11.00;;;;;19.53;65.34;101358.25;4921576;28;46193;-70
2021/07/15 06:03:17;;;;;;;;;12.00;11.50;;;;;19.70;65.42;101380.75;4921157;28;45434;-69
2021/07/15 06:05:43;;;;;;;;;11.00;8.50;;;;;19.51;65.31;101359.31;4920614;28;45763;-70
2021/07/15 06:08:08;;;;;;;;;16.50;12.50;;;;;19.42;65.41;101344.50;4922482;28;45569;-69
2021/07/15 06:10:34;;;;;;;;;15.75;12.00;;;;;19.55;65.42;101371.72;4918502;28;46402;-69
2021/07/15 06:12:59;;;;;;;;;8.25;8.25;;;;;19.66;65.47;101384.59;4922905;28;45233;-69
2021/07/15 06:15:25;;;;;;;;;11.00;10.75;;;;;19.68;65.22;101388.06;4922156;28;45451;-69
2021/07/15 06:17:50;;;;;;;;;12.00;11.50;;;;;19.50;65.40;101350.31;4922678;28;45502;-70
2021/07/15 06:20:16;;;;;;;;;9.50;9.50;;;;;19.67;65.02;101367.38;4917871;28;45637;-69
2021/07/15 06:22:43;;;;;;;;;9.25;9.25;;;;;19.53;65.62;101352.84;4922159;28;45546;-69
2021/07/15 06:25:10;;;;;;;;;10.50;10.50;;;;;19.52;65.22;101356.50;4922888;28;45488;-69
2021/07/15 06:27:36;;;;;;;;;14.75;12.25;;;;;19.60;65.17;101364.19;4922132;28;45520;-70
2021/07/15 06:30:05;;;;;;;;;10.50;9.50;;;;;19.79;65.42;101394.59;4922052;28;45356;-70
2021/07/15 06:32:30;;;;;;;;;13.00;12.00;;;;;19.43;65.24;101341.69;4922047;28;45507;-70
2021/07/15 06:34:56;;;;;;;;;10.25;10.00;;;;;19.48;65.25;101345.94;4920224;28;45461;-70
2021/07/15 06:37:27;;;;;;;;;12.25;12.00;;;;;19.71;65.33;101386.06;4904475;28;45542;-70
2021/07/15 06:39:52;;;;;;;;;12.00;12.00;;;;;19.61;65.43;101371.31;4922257;28;46230;-69
2021/07/15 06:42:18;;;;;;;;;14.00;12.25;;;;;19.81;65.15;101391.81;4921923;28;45467;-70
2021/07/15 06:44:43;;;;;;;;;11.00;10.00;;;;;19.60;65.16;101359.63;4922521;28;45393;-70
2021/07/15 06:47:10;;;;;;;;;11.50;11.00;;;;;19.67;64.84;101367.38;4922621;28;45315;-70
2021/07/15 06:49:35;;;;;;;;;13.25;13.25;;;;;19.73;65.06;101396.78;4913221;28;48714;-70
2021/07/15 06:52:01;;;;;;;;;11.50;11.50;;;;;19.67;65.15;101391.75;4921600;28;45515;-70
2021/07/15 06:54:26;;;;;;;;;12.00;12.00;;;;;19.80;65.30;101404.50;4921430;28;45338;-70
2021/07/15 06:56:51;;;;;;;;;12.00;10.75;;;;;19.70;65.53;101380.75;4921911;28;45423;-69
2021/07/15 06:59:17;;;;;;;;;12.00;12.00;;;;;19.53;65.54;101352.84;4901858;29;46954;-70
2021/07/15 07:01:42;;;;;;;;;12.00;11.50;;;;;19.71;65.51;101379.75;4918843;28;45444;-70
2021/07/15 07:04:14;;;;;;;;;10.00;10.00;;;;;19.85;65.25;101398.81;4921508;28;45366;-70
2021/07/15 07:06:40;;;;;;;;;14.00;12.50;;;;;19.72;65.01;101371.53;4922162;28;45280;-70
2021/07/15 07:09:05;;;;;;;;;18.25;16.00;;;;;19.75;65.63;101370.53;4919313;28;45382;-70
2021/07/15 07:11:31;;;;;;;;;10.25;10.25;;;;;19.64;65.38;101354.88;4915631;28;46000;-69
2021/07/15 07:13:56;;;;;;;;;10.75;10.75;;;;;19.99;65.23;101406.94;4911218;28;45791;-69
2021/07/15 07:16:22;;;;;;;;;11.00;11.00;;;;;19.97;65.08;101406.16;4919759;28;45856;-69
2021/07/15 07:27:08;;;;;;;;;;;;;;;;;;;;;
2021/07/15 07:34:16;;;;;;;;;;;;;;;;;;;;;
2021/07/15 08:24:32;;;;;;;;;10.50;10.50;;;;;20.15;63.83;101328.28;5997581;22;7967709;-74
2021/07/15 08:26:57;;;;;;;;;9.50;9.25;;;;;20.22;63.59;101328.75;6181347;22;45252;-73
2021/07/15 08:29:23;;;;;;;;;9.25;9.25;;;;;20.57;64.03;101388.00;6348521;22;45287;-68
2021/07/15 08:31:48;;;;;;;;;11.25;10.25;;;;;20.48;64.04;101364.16;6348333;22;45256;-72
2021/07/15 08:34:42;;;;;;;;;10.75;9.50;;;;;20.72;63.77;101400.59;6347558;22;45262;-82
2021/07/15 08:37:07;;;;;;;;;12.00;9.75;;;;;20.47;63.91;101359.72;6347615;22;45346;-71
2021/07/15 08:39:32;;;;;;;;;11.00;10.25;;;;;20.50;63.71;101354.97;6348174;22;45502;-71
2021/07/15 08:41:59;;;;;;;;;8.75;8.00;;;;;20.54;63.37;101359.22;6348047;22;45847;-71
2021/07/15 08:44:24;;;;;;;;;10.00;10.00;;;;;20.57;63.33;101354.59;6347085;22;45326;-72
2021/07/15 08:46:51;;;;;;;;;10.25;9.50;;;;;20.79;63.89;101387.50;6348072;22;45188;-72
2021/07/15 08:49:17;;;;;;;;;10.00;10.00;;;;;20.71;63.29;101371.75;6345805;22;45284;-72
2021/07/15 08:51:44;;;;;;;;;11.25;10.50;;;;;20.84;63.75;101379.06;6345038;22;45412;-72
2021/07/15 08:54:12;;;;;;;;;9.75;9.75;;;;;20.92;63.72;101384.88;6346656;22;45434;-72
2021/07/15 08:56:43;;;;;;;;;9.50;8.25;;;;;20.88;63.00;101373.34;6347023;22;45363;-72
2021/07/15 08:59:12;;;;;;;;;11.00;10.00;;;;;21.05;62.94;101385.78;6339685;22;45433;-72
2021/07/15 09:01:43;;;;;;;;;13.00;12.00;;;;;20.96;63.93;101369.25;6305473;22;48370;-72
2021/07/15 09:04:09;;;;;;;;;9.75;9.25;;;;;21.19;64.14;101390.28;6311488;22;45540;-72
2021/07/15 09:06:35;;;;;;;;;11.00;10.00;;;;;20.90;63.44;101329.81;6310673;22;45311;-72
2021/07/15 09:09:04;;;;;;;;;9.00;9.00;;;;;21.27;63.54;101392.50;6341540;22;45294;-72
2021/07/15 09:11:29;;;;;;;;;10.25;10.00;;;;;21.32;62.87;101390.34;6341218;22;46644;-72
2021/07/15 09:13:55;;;;;;;;;11.75;11.00;;;;;21.12;63.18;101347.34;6341133;22;45248;-72
2021/07/15 09:16:20;;;;;;;;;10.75;10.75;;;;;21.27;62.65;101368.94;6341419;22;45302;-72
2021/07/15 09:19:13;;;;;;;;;9.00;9.00;;;;;21.21;62.09;101353.03;6312605;22;45421;-72
2021/07/15 09:21:39;;;;;;;;;8.00;7.75;;;;;21.54;61.47;101405.22;6334157;22;45251;-72
2021/07/15 09:24:29;;;;;;;;;10.50;8.75;;;;;21.61;61.26;101398.38;6335588;22;45696;-72
2021/07/15 09:26:57;;;;;;;;;10.50;10.00;;;;;21.65;61.45;101394.47;6339060;22;45632;-73
2021/07/15 09:29:22;;;;;;;;;10.75;9.25;;;;;21.53;60.98;101376.31;6308027;22;45484;-72
2021/07/15 09:31:56;;;;;;;;;8.75;7.75;;;;;21.55;61.00;101355.34;6311519;22;47887;-72
2021/07/15 09:34:23;;;;;;;;;9.50;8.50;;;;;21.75;60.95;101398.31;6338709;22;45439;-72
2021/07/15 09:36:50;;;;;;;;;10.00;9.75;;;;;21.69;60.55;101366.13;6311907;22;45415;-72
2021/07/15 09:39:25;;;;;;;;;9.50;8.75;;;;;21.67;60.48;101354.50;6339756;22;45552;-72
2021/07/15 09:42:05;;;;;;;;;10.50;9.50;;;;;21.98;59.85;101409.41;6340134;22;45929;-72
2021/07/15 09:44:38;;;;;;;;;11.50;10.00;;;;;21.89;59.58;101372.03;6340036;22;45429;-72
2021/07/15 09:47:05;;;;;;;;;2.00;2.00;;;;;21.92;59.52;101383.53;6340387;22;45365;-72
2021/07/15 09:49:32;;;;;;;;;10.25;10.25;;;;;21.90;60.03;101376.47;6339712;22;45429;-72
2021/07/15 09:51:59;;;;;;;;;10.50;9.00;;;;;21.99;59.42;101378.56;6334169;22;46635;-72
2021/07/15 09:54:25;;;;;;;;;10.25;10.25;;;;;21.91;59.53;101364.63;6340619;22;45337;-72
2021/07/15 09:56:50;;;;;;;;;8.50;8.00;;;;;22.18;58.67;101391.69;6340991;22;45080;-73
2021/07/15 09:59:16;;;;;;;;;9.50;9.50;;;;;22.19;58.96;101401.59;6341282;22;45486;-73
2021/07/15 10:01:52;;;;;;;;;6.75;6.75;;;;;21.97;59.04;101361.50;6340941;22;46262;-76
2021/07/15 10:04:22;;;;;;;;;9.00;9.00;;;;;21.97;59.34;101345.19;6340372;22;45572;-75
2021/07/15 10:06:48;;;;;;;;;11.00;9.50;;;;;22.01;59.01;101346.69;6340355;22;45263;-75
2021/07/15 10:09:25;;;;;;;;;9.00;7.25;;;;;22.24;59.07;101369.50;6340654;22;45353;-73
2021/07/15 10:11:56;;;;;;;;;10.75;10.75;;;;;22.32;59.26;101372.59;6340398;22;45658;-72
2021/07/15 10:14:31;;;;;;;;;11.25;9.75;;;;;22.53;59.32;101391.91;6338971;22;45385;-72
2021/07/15 10:16:57;;;;;;;;;9.00;9.00;;;;;22.35;58.37;101364.22;6339420;22;45332;-72
2021/07/15 10:19:23;;;;;;;;;11.25;11.25;;;;;22.64;58.66;101390.28;6339552;22;45488;-72
2021/07/15 10:22:13;;;;;;;;;9.00;9.00;;;;;22.65;58.34;101386.56;6340005;22;45432;-72
2021/07/15 10:24:39;;;;;;;;;10.00;10.00;;;;;22.53;58.45;101355.69;6277898;22;45402;-71
2021/07/15 10:27:10;;;;;;;;;8.50;8.50;;;;;22.74;58.07;101402.22;6276504;22;45483;-71
2021/07/15 10:29:36;;;;;;;;;12.75;9.00;;;;;22.72;58.16;101399.63;6277863;22;45600;-72
2021/07/15 10:32:03;;;;;;;;;10.50;8.50;;;;;22.76;58.21;101401.13;6277586;22;45611;-71
2021/07/15 10:34:29;;;;;;;;;8.75;8.25;;;;;22.81;57.74;101410.81;6277390;22;45349;-72
2021/07/15 10:36:58;;;;;;;;;8.75;8.75;;;;;22.84;57.64;101405.16;6277928;22;45214;-71
2021/07/15 10:39:27;;;;;;;;;8.00;8.00;;;;;22.86;57.31;101411.34;6277624;22;45418;-71
2021/07/15 10:41:56;;;;;;;;;9.00;7.50;;;;;22.88;57.75;101412.94;6277547;22;45921;-71
2021/07/15 10:44:23;;;;;;;;;8.00;5.50;;;;;22.88;57.14;101412.94;6277361;22;45403;-71
2021/07/15 10:46:51;;;;;;;;;9.00;9.00;;;;;22.87;57.30;101403.06;6277962;22;45309;-72
2021/07/15 10:49:18;;;;;;;;;10.25;10.25;;;;;22.97;56.93;101411.41;6276769;22;45435;-72
2021/07/15 10:51:46;;;;;;;;;10.50;8.25;;;;;22.99;56.76;101404.00;6277694;22;46140;-72
2021/07/15 10:54:13;;;;;;;;;9.00;8.00;;;;;23.02;56.68;101406.50;6277336;22;45278;-71
2021/07/15 10:56:39;;;;;;;;;8.00;8.00;;;;;23.07;56.82;101411.59;6278060;22;45492;-71
2021/07/15 10:59:21;;;;;;;;;8.75;7.75;;;;;23.11;56.88;101408.53;6277986;22;45158;-72
2021/07/15 11:01:46;;;;;;;;;10.00;10.00;;;;;23.15;57.65;101408.31;6277263;22;45459;-71
2021/07/15 11:04:13;;;;;;;;;9.25;9.25;;;;;23.15;56.41;101398.28;6277111;22;45267;-71
2021/07/15 11:06:46;;;;;;;;;9.75;8.50;;;;;23.04;56.63;101390.91;6275929;22;45295;-71
2021/07/15 11:09:29;;;;;;;;;6.25;6.25;;;;;23.06;56.52;101383.53;6277505;22;45313;-71
2021/07/15 11:12:36;;;;;;;;;;;;;;;;;;;;;
2021/07/15 11:18:22;;;;;;;;;6.75;6.75;;;;;22.94;55.17;101339.00;6260419;22;45280;-73
2021/07/15 11:21:34;;;;;;;;;8.75;8.00;;;;;23.39;55.52;101408.31;6276328;22;45718;-73
2021/07/15 11:24:32;;;;;;;;;7.25;7.25;;;;;23.28;55.58;101390.06;6273973;22;47646;-73
2021/07/15 11:26:57;;;;;;;;;6.25;5.00;;;;;23.20;55.41;101368.00;6274906;22;45453;-73
2021/07/15 11:29:56;;;;;;;;;8.00;8.00;;;;;23.51;55.05;101406.53;6275230;22;45474;-73
2021/07/15 11:33:08;;;;;;;;;6.25;6.25;;;;;23.17;55.11;101343.72;6273621;22;45454;-73
2021/07/15 11:36:00;;;;;;;;;7.25;7.25;;;;;23.43;55.29;101386.16;6252633;22;46818;-73
2021/07/15 11:39:04;;;;;;;;;;;;;;;;;;;;;
2021/07/15 11:41:44;;;;;;;;;8.00;8.00;;;;;23.34;54.80;101351.47;6274622;22;68957;-74
2021/07/15 11:44:18;;;;;;;;;8.00;8.00;;;;;23.66;54.21;101403.47;6271133;22;45526;-68
2021/07/15 11:46:48;;;;;;;;;8.75;7.25;;;;;23.44;55.64;101368.00;6271684;22;45557;-69
2021/07/15 11:49:18;;;;;;;;;9.00;8.00;;;;;23.72;55.53;101406.72;6270075;22;45473;-69
2021/07/15 11:51:47;;;;;;;;;8.75;8.75;;;;;23.56;55.31;101383.38;6272461;22;45413;-69
2021/07/15 11:54:29;;;;;;;;;8.25;7.00;;;;;23.44;54.49;101365.25;6269763;22;45641;-69
2021/07/15 11:56:59;;;;;;;;;7.50;7.00;;;;;23.74;54.80;101412.91;6271888;22;45394;-68
2021/07/15 11:59:33;;;;;;;;;8.75;7.75;;;;;23.68;54.73;101404.22;6270384;22;45317;-68
2021/07/15 12:02:19;;;;;;;;;5.25;5.25;;;;;23.80;54.60;101409.72;6272532;22;45449;-69
2021/07/15 12:05:22;;;;;;;;;6.00;6.00;;;;;23.83;53.92;101409.50;6272753;22;45411;-67
2021/07/15 12:07:51;;;;;;;;;7.50;7.00;;;;;23.60;54.45;101371.25;6271958;22;45404;-69
2021/07/15 12:11:14;;;;;;;;;;;;;;;;;;;;;
2021/07/15 12:14:26;;;;;;;;;8.00;8.00;;;;;23.49;54.47;101346.72;6224734;22;68986;-74
2021/07/15 12:17:15;;;;;;;;;6.25;5.50;;;;;23.89;54.34;101403.59;6266903;22;45745;-73
2021/07/15 12:20:25;;;;;;;;;8.25;8.25;;;;;23.85;54.57;101392.03;6268476;22;47581;-73
2021/07/15 12:23:33;;;;;;;;;;;;;;;;;;;;;
2021/07/15 12:26:58;;;;;;;;;;;;;;;;;;;;;
2021/07/15 12:30:18;;;;;;;;;;;;;;;;;;;;;
2021/07/15 12:36:31;;;;;;;;;6.75;6.75;;;;;24.01;53.74;101416.25;6232838;22;45617;-74
2021/07/15 12:39:35;;;;;;;;;;;;;;;;;;;;;
2021/07/15 12:42:17;;;;;;;;;6.75;6.25;;;;;23.73;53.96;101359.41;6272458;22;72968;-73
2021/07/15 12:44:52;;;;;;;;;6.00;6.00;;;;;23.72;53.38;101360.38;6275249;22;47927;-73
2021/07/15 12:47:33;;;;;;;;;;;;;;;;;;;;;
2021/07/15 12:50:30;;;;;;;;;;;;;;;;;;;;;
2021/07/15 12:53:37;;;;;;;;;9.75;8.00;;;;;24.04;54.49;101407.84;6276130;22;72046;-73
2021/07/15 12:56:27;;;;;;;;;7.50;7.50;;;;;24.12;53.85;101430.88;6274588;22;47031;-73
2021/07/15 12:59:24;;;;;;;;;;;;;;;;;;;;;
2021/07/15 13:02:07;;;;;;;;;5.75;5.75;;;;;23.99;53.75;101412.78;6276949;22;67946;-73
2021/07/15 13:04:41;;;;;;;;;6.25;6.25;;;;;23.78;53.58;101370.81;6277104;22;45547;-73
2021/07/15 13:07:11;;;;;;;;;6.50;4.50;;;;;23.99;53.92;101411.88;6274407;22;46813;-73
2021/07/15 13:10:03;;;;;;;;;6.50;6.50;;;;;23.86;53.72;101385.59;6277902;22;45328;-73
2021/07/15 13:15:20;;;;;;;;;4.75;4.75;;;;;23.99;53.70;101403.72;6275491;22;45260;-72
2021/07/15 13:17:47;;;;;;;;;9.00;8.25;;;;;24.11;53.63;101427.31;6276258;22;45830;-72
2021/07/15 13:20:19;;;;;;;;;7.25;6.75;;;;;23.95;52.98;101394.91;6277419;22;45532;-72
2021/07/15 13:22:50;;;;;;;;;7.50;7.25;;;;;23.98;52.96;101397.41;6283668;22;45553;-73
2021/07/15 13:25:24;;;;;;;;;6.25;6.25;;;;;23.84;53.44;101362.19;6306261;22;45272;-73
2021/07/15 13:28:06;;;;;;;;;7.25;7.25;;;;;24.23;53.44;101430.91;6307580;22;45572;-73
2021/07/15 13:30:43;;;;;;;;;5.50;5.50;;;;;24.21;53.97;101419.25;6306761;22;45313;-73
2021/07/15 13:33:22;;;;;;;;;7.50;7.50;;;;;24.13;53.51;101403.50;6308437;22;45396;-72
2021/07/15 13:35:53;;;;;;;;;7.00;6.00;;;;;24.27;53.17;101417.91;6308343;22;45456;-72
2021/07/15 13:38:24;;;;;;;;;7.50;7.50;;;;;24.24;53.22;101410.84;6306140;22;47841;-72
2021/07/15 13:40:55;;;;;;;;;7.00;7.00;;;;;23.98;54.05;101363.81;6309565;22;45374;-72
2021/07/15 13:43:24;;;;;;;;;5.75;5.75;;;;;23.97;53.21;101356.63;6308411;22;45259;-73
2021/07/15 13:45:53;;;;;;;;;8.75;8.75;;;;;24.34;52.39;101419.13;6307822;22;45740;-73
2021/07/15 13:48:41;;;;;;;;;7.50;7.00;;;;;24.44;53.51;101432.91;6308037;22;45360;-72
2021/07/15 13:51:12;;;;;;;;;9.50;9.00;;;;;24.22;53.23;101404.63;6308875;22;45359;-72
2021/07/15 13:53:47;;;;;;;;;8.00;7.00;;;;;24.45;52.96;101434.66;6308361;22;45100;-72
2021/07/15 13:56:37;;;;;;;;;6.25;6.00;;;;;24.39;52.66;101425.97;6305550;22;45400;-72
2021/07/15 13:59:10;;;;;;;;;5.25;5.25;;;;;24.34;53.07;101427.31;6308643;22;45720;-72
2021/07/15 14:01:38;;;;;;;;;6.25;6.25;;;;;24.15;52.67;101392.47;6306539;22;45616;-72
2021/07/15 14:04:08;;;;;;;;;6.50;6.50;;;;;24.15;52.63;101390.59;6332624;22;45870;-72
2021/07/15 14:06:35;;;;;;;;;8.00;6.75;;;;;24.15;53.14;101392.47;6306860;22;45448;-72
2021/07/15 14:09:02;;;;;;;;;6.00;6.00;;;;;24.21;52.96;101402.91;6307501;22;47996;-72
2021/07/15 14:11:30;;;;;;;;;7.00;7.00;;;;;24.17;52.78;101399.56;6304553;22;45547;-72
2021/07/15 14:14:02;;;;;;;;;7.50;7.50;;;;;24.13;52.86;101380.81;6308507;22;45423;-72
2021/07/15 14:16:39;;;;;;;;;7.75;7.75;;;;;24.35;52.51;101419.00;6307811;22;45429;-71
2021/07/15 14:19:12;;;;;;;;;8.25;6.75;;;;;24.33;52.28;101425.59;6308239;22;45448;-72
2021/07/15 14:21:37;;;;;;;;;6.50;6.50;;;;;24.19;53.02;101394.84;6308295;22;45317;-71
2021/07/15 14:24:03;;;;;;;;;6.75;6.75;;;;;24.21;53.39;101405.63;6335457;22;45284;-72
2021/07/15 14:26:29;;;;;;;;;7.25;7.25;;;;;24.21;52.75;101402.91;6341297;22;45395;-72
2021/07/15 14:28:54;;;;;;;;;7.00;7.00;;;;;24.24;52.10;101402.66;6339479;22;45389;-69
2021/07/15 14:31:43;;;;;;;;;;;;;;;;;;;;;
2021/07/15 14:34:09;;;;;;;;;4.25;4.00;;;;;23.99;52.17;101379.16;6338868;22;68051;-74
2021/07/15 14:36:37;;;;;;;;;5.25;5.25;;;;;24.43;52.41;101451.16;6312471;22;45231;-73
2021/07/15 14:39:05;;;;;;;;;7.00;7.00;;;;;24.07;52.29;101379.44;6338805;22;48051;-72
2021/07/15 14:41:30;;;;;;;;;5.50;5.50;;;;;24.18;51.43;101400.41;6339571;22;45498;-74